sensor_id;sensor_type;location;lat;lon;timestamp;P1;durP1;ratioP1;P2;durP2;ratioP2
74245;SDS011;62601;51.044;13.788;2023-06-24T00:02:08;8.33;;;7.53;;
74245;SDS011;62601;51.044;13.788;2023-06-24T00:04:28;9.23;;;8.17;;
74245;SDS011;62601;51.044;13.788;2023-06-24T00:06:49;10.50;;;7.57;;
74245;SDS011;62601;51.044;13.788;2023-06-24T00:09:09;8.77;;;7.90;;
74245;SDS011;62601;51.044;13.788;2023-06-24T00:11:29;9.07;;;8.13;;
74245;SDS011;62601;51.044;13.788;2023-06-24T00:13:49;9.57;;;8.07;;
74245;SDS011;62601;51.044;13.788;2023-06-24T00:16:09;8.10;;;7.40;;
74245;SDS011;62601;51.044;13.788;2023-06-24T00:18:30;8.23;;;7.43;;
74245;SDS011;62601;51.044;13.788;2023-06-24T00:20:50;8.90;;;7.87;;
74245;SDS011;62601;51.044;13.788;2023-06-24T00:23:11;8.10;;;7.27;;
74245;SDS011;62601;51.044;13.788;2023-06-24T00:25:32;8.57;;;7.50;;
74245;SDS011;62601;51.044;13.788;2023-06-24T00:27:52;10.07;;;8.43;;
74245;SDS011;62601;51.044;13.788;2023-06-24T00:30:13;7.50;;;6.80;;
74245;SDS011;62601;51.044;13.788;2023-06-24T00:32:33;8.97;;;8.07;;
74245;SDS011;62601;51.044;13.788;2023-06-24T00:34:53;9.47;;;8.50;;
74245;SDS011;62601;51.044;13.788;2023-06-24T00:37:13;10.20;;;9.10;;
74245;SDS011;62601;51.044;13.788;2023-06-24T00:39:33;9.20;;;8.07;;
74245;SDS011;62601;51.044;13.788;2023-06-24T00:41:53;10.30;;;8.13;;
74245;SDS011;62601;51.044;13.788;2023-06-24T00:44:13;9.57;;;8.50;;
74245;SDS011;62601;51.044;13.788;2023-06-24T00:46:34;10.10;;;9.07;;
74245;SDS011;62601;51.044;13.788;2023-06-24T00:48:55;10.30;;;9.30;;
74245;SDS011;62601;51.044;13.788;2023-06-24T00:51:15;24.60;;;18.00;;
74245;SDS011;62601;51.044;13.788;2023-06-24T00:53:35;12.37;;;9.93;;
74245;SDS011;62601;51.044;13.788;2023-06-24T00:55:55;10.17;;;9.27;;
74245;SDS011;62601;51.044;13.788;2023-06-24T00:58:17;11.03;;;9.93;;
74245;SDS011;62601;51.044;13.788;2023-06-24T01:00:37;11.60;;;10.40;;
74245;SDS011;62601;51.044;13.788;2023-06-24T01:02:57;11.30;;;10.20;;
74245;SDS011;62601;51.044;13.788;2023-06-24T01:05:17;13.43;;;11.00;;
74245;SDS011;62601;51.044;13.788;2023-06-24T01:07:38;10.77;;;9.73;;
74245;SDS011;62601;51.044;13.788;2023-06-24T01:09:58;11.17;;;9.97;;
74245;SDS011;62601;51.044;13.788;2023-06-24T01:12:18;11.57;;;10.30;;
74245;SDS011;62601;51.044;13.788;2023-06-24T01:14:38;11.33;;;9.97;;
74245;SDS011;62601;51.044;13.788;2023-06-24T01:17:03;13.93;;;10.90;;
74245;SDS011;62601;51.044;13.788;2023-06-24T01:24:29;14.67;;;11.00;;
74245;SDS011;62601;51.044;13.788;2023-06-24T01:31:51;14.73;;;11.60;;
74245;SDS011;62601;51.044;13.788;2023-06-24T01:34:15;16.10;;;13.50;;
74245;SDS011;62601;51.044;13.788;2023-06-24T01:36:36;15.93;;;12.00;;
74245;SDS011;62601;51.044;13.788;2023-06-24T01:39:01;14.93;;;13.15;;
74245;SDS011;62601;51.044;13.788;2023-06-24T01:41:22;16.03;;;12.27;;
74245;SDS011;62601;51.044;13.788;2023-06-24T01:43:44;16.40;;;12.30;;
74245;SDS011;62601;51.044;13.788;2023-06-24T01:46:05;14.40;;;12.97;;
74245;SDS011;62601;51.044;13.788;2023-06-24T01:48:27;14.03;;;11.77;;
74245;SDS011;62601;51.044;13.788;2023-06-24T01:51:00;15.90;;;11.97;;
74245;SDS011;62601;51.044;13.788;2023-06-24T01:53:21;14.93;;;12.70;;
74245;SDS011;62601;51.044;13.788;2023-06-24T01:55:42;13.10;;;11.70;;
74245;SDS011;62601;51.044;13.788;2023-06-24T01:58:04;14.03;;;12.53;;
74245;SDS011;62601;51.044;13.788;2023-06-24T02:00:25;18.77;;;12.67;;
74245;SDS011;62601;51.044;13.788;2023-06-24T02:02:46;17.37;;;12.60;;
74245;SDS011;62601;51.044;13.788;2023-06-24T02:05:06;16.47;;;14.27;;
74245;SDS011;62601;51.044;13.788;2023-06-24T02:07:27;20.10;;;13.60;;
74245;SDS011;62601;51.044;13.788;2023-06-24T02:09:48;14.70;;;13.10;;
74245;SDS011;62601;51.044;13.788;2023-06-24T02:12:09;16.90;;;13.87;;
74245;SDS011;62601;51.044;13.788;2023-06-24T02:14:29;14.13;;;11.67;;
74245;SDS011;62601;51.044;13.788;2023-06-24T02:16:50;19.53;;;13.97;;
74245;SDS011;62601;51.044;13.788;2023-06-24T02:19:10;16.13;;;14.43;;
74245;SDS011;62601;51.044;13.788;2023-06-24T02:21:31;16.17;;;13.40;;
74245;SDS011;62601;51.044;13.788;2023-06-24T02:23:51;17.10;;;14.20;;
74245;SDS011;62601;51.044;13.788;2023-06-24T02:26:12;16.73;;;13.30;;
74245;SDS011;62601;51.044;13.788;2023-06-24T02:28:32;15.40;;;13.80;;
74245;SDS011;62601;51.044;13.788;2023-06-24T02:30:53;15.60;;;13.67;;
74245;SDS011;62601;51.044;13.788;2023-06-24T02:33:14;15.57;;;13.97;;
74245;SDS011;62601;51.044;13.788;2023-06-24T02:35:34;19.40;;;14.43;;
74245;SDS011;62601;51.044;13.788;2023-06-24T02:37:54;16.33;;;14.63;;
74245;SDS011;62601;51.044;13.788;2023-06-24T02:40:14;18.97;;;14.93;;
74245;SDS011;62601;51.044;13.788;2023-06-24T02:42:34;15.73;;;13.87;;
74245;SDS011;62601;51.044;13.788;2023-06-24T02:44:54;19.40;;;16.50;;
74245;SDS011;62601;51.044;13.788;2023-06-24T02:47:15;17.50;;;15.27;;
74245;SDS011;62601;51.044;13.788;2023-06-24T02:49:36;20.60;;;15.67;;
74245;SDS011;62601;51.044;13.788;2023-06-24T02:51:57;17.40;;;14.83;;
74245;SDS011;62601;51.044;13.788;2023-06-24T02:54:17;19.87;;;14.70;;
74245;SDS011;62601;51.044;13.788;2023-06-24T02:56:37;17.80;;;16.00;;
74245;SDS011;62601;51.044;13.788;2023-06-24T02:58:58;18.90;;;14.93;;
74245;SDS011;62601;51.044;13.788;2023-06-24T03:01:18;20.43;;;15.63;;
74245;SDS011;62601;51.044;13.788;2023-06-24T03:03:38;21.10;;;15.43;;
74245;SDS011;62601;51.044;13.788;2023-06-24T03:06:00;20.10;;;16.23;;
74245;SDS011;62601;51.044;13.788;2023-06-24T03:08:20;24.37;;;15.73;;
74245;SDS011;62601;51.044;13.788;2023-06-24T03:10:40;18.10;;;15.77;;
74245;SDS011;62601;51.044;13.788;2023-06-24T03:13:00;18.20;;;15.17;;
74245;SDS011;62601;51.044;13.788;2023-06-24T03:15:20;21.63;;;15.37;;
74245;SDS011;62601;51.044;13.788;2023-06-24T03:17:40;17.70;;;15.10;;
74245;SDS011;62601;51.044;13.788;2023-06-24T03:20:01;22.60;;;15.63;;
74245;SDS011;62601;51.044;13.788;2023-06-24T03:22:21;19.97;;;16.33;;
74245;SDS011;62601;51.044;13.788;2023-06-24T03:24:41;17.87;;;16.00;;
74245;SDS011;62601;51.044;13.788;2023-06-24T03:27:01;18.10;;;15.83;;
74245;SDS011;62601;51.044;13.788;2023-06-24T03:29:22;20.07;;;16.70;;
74245;SDS011;62601;51.044;13.788;2023-06-24T03:31:42;22.00;;;16.97;;
74245;SDS011;62601;51.044;13.788;2023-06-24T03:34:02;18.90;;;15.10;;
74245;SDS011;62601;51.044;13.788;2023-06-24T03:36:22;21.00;;;16.23;;
74245;SDS011;62601;51.044;13.788;2023-06-24T03:38:42;16.23;;;14.63;;
74245;SDS011;62601;51.044;13.788;2023-06-24T03:41:02;21.00;;;16.03;;
74245;SDS011;62601;51.044;13.788;2023-06-24T03:43:23;22.27;;;17.30;;
74245;SDS011;62601;51.044;13.788;2023-06-24T03:45:43;17.97;;;15.17;;
74245;SDS011;62601;51.044;13.788;2023-06-24T03:48:03;19.97;;;14.73;;
74245;SDS011;62601;51.044;13.788;2023-06-24T03:50:23;17.60;;;15.60;;
74245;SDS011;62601;51.044;13.788;2023-06-24T03:52:43;21.87;;;16.80;;
74245;SDS011;62601;51.044;13.788;2023-06-24T03:55:03;19.10;;;15.13;;
74245;SDS011;62601;51.044;13.788;2023-06-24T03:57:23;19.63;;;15.60;;
74245;SDS011;62601;51.044;13.788;2023-06-24T03:59:44;19.23;;;16.40;;
74245;SDS011;62601;51.044;13.788;2023-06-24T04:02:07;16.93;;;15.17;;
74245;SDS011;62601;51.044;13.788;2023-06-24T04:04:27;18.97;;;14.47;;
74245;SDS011;62601;51.044;13.788;2023-06-24T04:06:47;17.43;;;15.57;;
74245;SDS011;62601;51.044;13.788;2023-06-24T04:09:07;17.80;;;14.50;;
74245;SDS011;62601;51.044;13.788;2023-06-24T04:11:27;18.83;;;15.80;;
74245;SDS011;62601;51.044;13.788;2023-06-24T04:13:47;17.23;;;15.33;;
74245;SDS011;62601;51.044;13.788;2023-06-24T04:16:07;18.40;;;15.20;;
74245;SDS011;62601;51.044;13.788;2023-06-24T04:18:27;19.60;;;15.13;;
74245;SDS011;62601;51.044;13.788;2023-06-24T04:20:47;21.87;;;14.60;;
74245;SDS011;62601;51.044;13.788;2023-06-24T04:23:07;19.37;;;14.23;;
74245;SDS011;62601;51.044;13.788;2023-06-24T04:25:28;19.90;;;13.87;;
74245;SDS011;62601;51.044;13.788;2023-06-24T04:27:48;15.77;;;14.13;;
74245;SDS011;62601;51.044;13.788;2023-06-24T04:30:08;16.13;;;14.40;;
74245;SDS011;62601;51.044;13.788;2023-06-24T04:32:28;17.70;;;13.60;;
74245;SDS011;62601;51.044;13.788;2023-06-24T04:34:48;16.43;;;13.23;;
74245;SDS011;62601;51.044;13.788;2023-06-24T04:37:08;18.30;;;13.70;;
74245;SDS011;62601;51.044;13.788;2023-06-24T04:39:28;16.67;;;14.00;;
74245;SDS011;62601;51.044;13.788;2023-06-24T04:41:49;17.00;;;13.63;;
74245;SDS011;62601;51.044;13.788;2023-06-24T04:44:09;14.37;;;12.77;;
74245;SDS011;62601;51.044;13.788;2023-06-24T04:46:29;15.57;;;12.70;;
74245;SDS011;62601;51.044;13.788;2023-06-24T04:48:49;17.13;;;13.80;;
74245;SDS011;62601;51.044;13.788;2023-06-24T04:51:09;16.53;;;12.27;;
74245;SDS011;62601;51.044;13.788;2023-06-24T04:53:29;14.10;;;11.73;;
74245;SDS011;62601;51.044;13.788;2023-06-24T04:55:49;17.83;;;13.17;;
74245;SDS011;62601;51.044;13.788;2023-06-24T04:58:09;16.93;;;13.80;;
74245;SDS011;62601;51.044;13.788;2023-06-24T05:00:29;19.93;;;13.00;;
74245;SDS011;62601;51.044;13.788;2023-06-24T05:02:50;14.30;;;12.80;;
74245;SDS011;62601;51.044;13.788;2023-06-24T05:05:10;14.70;;;13.10;;
74245;SDS011;62601;51.044;13.788;2023-06-24T05:07:30;13.50;;;12.17;;
74245;SDS011;62601;51.044;13.788;2023-06-24T05:09:50;16.57;;;13.67;;
74245;SDS011;62601;51.044;13.788;2023-06-24T05:12:10;16.30;;;12.30;;
74245;SDS011;62601;51.044;13.788;2023-06-24T05:14:30;17.10;;;13.10;;
74245;SDS011;62601;51.044;13.788;2023-06-24T05:16:50;15.57;;;13.40;;
74245;SDS011;62601;51.044;13.788;2023-06-24T05:19:10;19.07;;;14.40;;
74245;SDS011;62601;51.044;13.788;2023-06-24T05:21:30;17.47;;;14.60;;
74245;SDS011;62601;51.044;13.788;2023-06-24T05:23:50;16.97;;;14.93;;
74245;SDS011;62601;51.044;13.788;2023-06-24T05:26:11;17.80;;;13.87;;
74245;SDS011;62601;51.044;13.788;2023-06-24T05:28:31;19.70;;;16.00;;
74245;SDS011;62601;51.044;13.788;2023-06-24T05:30:51;22.40;;;17.50;;
74245;SDS011;62601;51.044;13.788;2023-06-24T05:33:11;21.00;;;18.60;;
74245;SDS011;62601;51.044;13.788;2023-06-24T05:35:31;20.23;;;18.23;;
74245;SDS011;62601;51.044;13.788;2023-06-24T05:37:51;20.03;;;18.00;;
74245;SDS011;62601;51.044;13.788;2023-06-24T05:40:11;21.70;;;19.03;;
74245;SDS011;62601;51.044;13.788;2023-06-24T05:42:31;23.47;;;20.20;;
74245;SDS011;62601;51.044;13.788;2023-06-24T05:44:51;22.00;;;18.43;;
74245;SDS011;62601;51.044;13.788;2023-06-24T05:47:12;22.10;;;19.80;;
74245;SDS011;62601;51.044;13.788;2023-06-24T05:49:32;26.20;;;19.47;;
74245;SDS011;62601;51.044;13.788;2023-06-24T05:51:52;29.77;;;21.33;;
74245;SDS011;62601;51.044;13.788;2023-06-24T05:54:12;23.60;;;19.50;;
74245;SDS011;62601;51.044;13.788;2023-06-24T05:56:32;23.97;;;19.33;;
74245;SDS011;62601;51.044;13.788;2023-06-24T05:58:52;23.13;;;20.10;;
74245;SDS011;62601;51.044;13.788;2023-06-24T06:01:12;24.77;;;18.67;;
74245;SDS011;62601;51.044;13.788;2023-06-24T06:03:32;27.97;;;20.53;;
74245;SDS011;62601;51.044;13.788;2023-06-24T06:05:52;23.70;;;19.07;;
74245;SDS011;62601;51.044;13.788;2023-06-24T06:08:12;22.33;;;19.47;;
74245;SDS011;62601;51.044;13.788;2023-06-24T06:10:32;28.40;;;19.73;;
74245;SDS011;62601;51.044;13.788;2023-06-24T06:12:53;21.90;;;19.60;;
74245;SDS011;62601;51.044;13.788;2023-06-24T06:15:13;26.33;;;21.30;;
74245;SDS011;62601;51.044;13.788;2023-06-24T06:17:33;30.57;;;21.03;;
74245;SDS011;62601;51.044;13.788;2023-06-24T06:19:53;25.37;;;20.37;;
74245;SDS011;62601;51.044;13.788;2023-06-24T06:22:13;22.50;;;19.70;;
74245;SDS011;62601;51.044;13.788;2023-06-24T06:24:33;35.93;;;22.20;;
74245;SDS011;62601;51.044;13.788;2023-06-24T06:26:53;27.30;;;20.23;;
74245;SDS011;62601;51.044;13.788;2023-06-24T06:29:13;25.40;;;20.60;;
74245;SDS011;62601;51.044;13.788;2023-06-24T06:31:33;26.33;;;21.60;;
74245;SDS011;62601;51.044;13.788;2023-06-24T06:33:54;28.07;;;20.37;;
74245;SDS011;62601;51.044;13.788;2023-06-24T06:36:14;26.07;;;21.43;;
74245;SDS011;62601;51.044;13.788;2023-06-24T06:38:34;29.17;;;21.70;;
74245;SDS011;62601;51.044;13.788;2023-06-24T06:40:54;24.40;;;19.83;;
74245;SDS011;62601;51.044;13.788;2023-06-24T06:43:14;24.53;;;19.53;;
74245;SDS011;62601;51.044;13.788;2023-06-24T06:45:34;26.03;;;19.47;;
74245;SDS011;62601;51.044;13.788;2023-06-24T06:47:54;26.43;;;18.93;;
74245;SDS011;62601;51.044;13.788;2023-06-24T06:50:14;24.47;;;20.00;;
74245;SDS011;62601;51.044;13.788;2023-06-24T06:52:34;29.13;;;19.07;;
74245;SDS011;62601;51.044;13.788;2023-06-24T06:54:55;23.97;;;20.17;;
74245;SDS011;62601;51.044;13.788;2023-06-24T06:57:15;26.77;;;20.63;;
74245;SDS011;62601;51.044;13.788;2023-06-24T06:59:35;26.20;;;20.03;;
74245;SDS011;62601;51.044;13.788;2023-06-24T07:01:55;21.30;;;19.00;;
74245;SDS011;62601;51.044;13.788;2023-06-24T07:04:15;24.80;;;19.07;;
74245;SDS011;62601;51.044;13.788;2023-06-24T07:06:35;22.63;;;19.80;;
74245;SDS011;62601;51.044;13.788;2023-06-24T07:08:55;23.70;;;19.10;;
74245;SDS011;62601;51.044;13.788;2023-06-24T07:11:15;27.67;;;20.33;;
74245;SDS011;62601;51.044;13.788;2023-06-24T07:13:35;28.47;;;20.07;;
74245;SDS011;62601;51.044;13.788;2023-06-24T07:15:55;25.23;;;20.80;;
74245;SDS011;62601;51.044;13.788;2023-06-24T07:18:16;20.87;;;17.83;;
74245;SDS011;62601;51.044;13.788;2023-06-24T07:20:36;24.73;;;19.53;;
74245;SDS011;62601;51.044;13.788;2023-06-24T07:22:56;28.73;;;19.07;;
74245;SDS011;62601;51.044;13.788;2023-06-24T07:25:16;26.07;;;19.67;;
74245;SDS011;62601;51.044;13.788;2023-06-24T07:27:36;27.63;;;18.57;;
74245;SDS011;62601;51.044;13.788;2023-06-24T07:29:56;20.83;;;18.27;;
74245;SDS011;62601;51.044;13.788;2023-06-24T07:32:16;24.40;;;18.13;;
74245;SDS011;62601;51.044;13.788;2023-06-24T07:34:36;24.17;;;18.03;;
74245;SDS011;62601;51.044;13.788;2023-06-24T07:36:56;24.43;;;16.87;;
74245;SDS011;62601;51.044;13.788;2023-06-24T07:39:17;18.50;;;16.20;;
74245;SDS011;62601;51.044;13.788;2023-06-24T07:41:37;19.23;;;17.33;;
74245;SDS011;62601;51.044;13.788;2023-06-24T07:43:57;19.60;;;16.10;;
74245;SDS011;62601;51.044;13.788;2023-06-24T07:46:17;18.73;;;16.73;;
74245;SDS011;62601;51.044;13.788;2023-06-24T07:48:37;20.27;;;16.20;;
74245;SDS011;62601;51.044;13.788;2023-06-24T07:50:57;21.23;;;18.03;;
74245;SDS011;62601;51.044;13.788;2023-06-24T07:53:17;18.50;;;15.50;;
74245;SDS011;62601;51.044;13.788;2023-06-24T07:55:37;17.80;;;15.70;;
74245;SDS011;62601;51.044;13.788;2023-06-24T07:57:58;17.20;;;15.37;;
74245;SDS011;62601;51.044;13.788;2023-06-24T08:00:18;18.33;;;15.03;;
74245;SDS011;62601;51.044;13.788;2023-06-24T08:02:38;22.20;;;18.47;;
74245;SDS011;62601;51.044;13.788;2023-06-24T08:04:58;17.70;;;15.90;;
74245;SDS011;62601;51.044;13.788;2023-06-24T08:07:18;16.70;;;14.90;;
74245;SDS011;62601;51.044;13.788;2023-06-24T08:09:39;16.03;;;14.43;;
74245;SDS011;62601;51.044;13.788;2023-06-24T08:11:59;18.23;;;14.63;;
74245;SDS011;62601;51.044;13.788;2023-06-24T08:14:19;15.20;;;13.80;;
74245;SDS011;62601;51.044;13.788;2023-06-24T08:16:39;20.87;;;13.70;;
74245;SDS011;62601;51.044;13.788;2023-06-24T08:18:59;20.23;;;13.00;;
74245;SDS011;62601;51.044;13.788;2023-06-24T08:21:19;16.30;;;12.60;;
74245;SDS011;62601;51.044;13.788;2023-06-24T08:23:39;16.00;;;11.80;;
74245;SDS011;62601;51.044;13.788;2023-06-24T08:26:00;14.23;;;12.20;;
74245;SDS011;62601;51.044;13.788;2023-06-24T08:28:20;13.73;;;12.10;;
74245;SDS011;62601;51.044;13.788;2023-06-24T08:30:40;17.37;;;13.40;;
74245;SDS011;62601;51.044;13.788;2023-06-24T08:33:00;16.40;;;12.07;;
74245;SDS011;62601;51.044;13.788;2023-06-24T08:35:21;13.03;;;11.00;;
74245;SDS011;62601;51.044;13.788;2023-06-24T08:37:41;18.37;;;12.70;;
74245;SDS011;62601;51.044;13.788;2023-06-24T08:40:01;15.73;;;11.77;;
74245;SDS011;62601;51.044;13.788;2023-06-24T08:42:22;13.97;;;11.30;;
74245;SDS011;62601;51.044;13.788;2023-06-24T08:44:42;12.60;;;11.20;;
74245;SDS011;62601;51.044;13.788;2023-06-24T08:47:02;13.77;;;10.63;;
74245;SDS011;62601;51.044;13.788;2023-06-24T08:51:43;13.60;;;10.23;;
74245;SDS011;62601;51.044;13.788;2023-06-24T08:54:04;15.90;;;12.87;;
74245;SDS011;62601;51.044;13.788;2023-06-24T08:56:26;17.03;;;13.17;;
74245;SDS011;62601;51.044;13.788;2023-06-24T08:58:46;13.80;;;9.83;;
74245;SDS011;62601;51.044;13.788;2023-06-24T09:01:06;11.97;;;8.60;;
74245;SDS011;62601;51.044;13.788;2023-06-24T09:03:27;9.93;;;9.00;;
74245;SDS011;62601;51.044;13.788;2023-06-24T09:05:47;9.97;;;9.00;;
74245;SDS011;62601;51.044;13.788;2023-06-24T09:08:07;9.10;;;8.30;;
74245;SDS011;62601;51.044;13.788;2023-06-24T09:10:34;9.70;;;8.80;;
74245;SDS011;62601;51.044;13.788;2023-06-24T09:12:54;10.80;;;8.53;;
74245;SDS011;62601;51.044;13.788;2023-06-24T09:15:14;8.83;;;7.93;;
74245;SDS011;62601;51.044;13.788;2023-06-24T09:17:43;8.53;;;7.83;;
74245;SDS011;62601;51.044;13.788;2023-06-24T09:20:04;8.07;;;7.27;;
74245;SDS011;62601;51.044;13.788;2023-06-24T09:22:24;7.10;;;6.40;;
74245;SDS011;62601;51.044;13.788;2023-06-24T09:24:48;10.93;;;7.40;;
74245;SDS011;62601;51.044;13.788;2023-06-24T09:27:08;8.50;;;7.70;;
74245;SDS011;62601;51.044;13.788;2023-06-24T09:29:32;8.00;;;7.20;;
74245;SDS011;62601;51.044;13.788;2023-06-24T09:31:52;7.87;;;6.53;;
74245;SDS011;62601;51.044;13.788;2023-06-24T09:34:13;7.50;;;6.83;;
74245;SDS011;62601;51.044;13.788;2023-06-24T09:36:33;7.00;;;6.30;;
74245;SDS011;62601;51.044;13.788;2023-06-24T09:38:53;8.90;;;7.83;;
74245;SDS011;62601;51.044;13.788;2023-06-24T09:41:13;8.20;;;7.40;;
74245;SDS011;62601;51.044;13.788;2023-06-24T09:43:34;7.87;;;7.03;;
74245;SDS011;62601;51.044;13.788;2023-06-24T09:45:54;7.00;;;5.83;;
74245;SDS011;62601;51.044;13.788;2023-06-24T09:48:15;6.73;;;6.03;;
74245;SDS011;62601;51.044;13.788;2023-06-24T09:50:35;9.70;;;6.43;;
74245;SDS011;62601;51.044;13.788;2023-06-24T09:52:55;7.03;;;6.50;;
74245;SDS011;62601;51.044;13.788;2023-06-24T09:55:16;6.50;;;5.90;;
74245;SDS011;62601;51.044;13.788;2023-06-24T09:57:37;7.33;;;6.50;;
74245;SDS011;62601;51.044;13.788;2023-06-24T09:59:58;8.53;;;6.40;;
74245;SDS011;62601;51.044;13.788;2023-06-24T10:02:18;9.77;;;6.70;;
74245;SDS011;62601;51.044;13.788;2023-06-24T10:04:39;8.50;;;5.97;;
74245;SDS011;62601;51.044;13.788;2023-06-24T10:06:59;15.90;;;12.60;;
74245;SDS011;62601;51.044;13.788;2023-06-24T10:09:20;12.30;;;11.27;;
74245;SDS011;62601;51.044;13.788;2023-06-24T10:11:40;6.53;;;5.97;;
74245;SDS011;62601;51.044;13.788;2023-06-24T10:14:00;5.80;;;5.30;;
74245;SDS011;62601;51.044;13.788;2023-06-24T10:16:20;7.30;;;5.43;;
74245;SDS011;62601;51.044;13.788;2023-06-24T10:18:40;6.33;;;5.63;;
74245;SDS011;62601;51.044;13.788;2023-06-24T10:21:01;7.37;;;5.60;;
74245;SDS011;62601;51.044;13.788;2023-06-24T10:23:21;9.37;;;5.83;;
74245;SDS011;62601;51.044;13.788;2023-06-24T10:25:41;6.70;;;5.57;;
74245;SDS011;62601;51.044;13.788;2023-06-24T10:28:02;7.73;;;6.87;;
74245;SDS011;62601;51.044;13.788;2023-06-24T10:30:22;7.60;;;6.00;;
74245;SDS011;62601;51.044;13.788;2023-06-24T10:32:42;6.17;;;5.70;;
74245;SDS011;62601;51.044;13.788;2023-06-24T10:35:03;6.80;;;6.20;;
74245;SDS011;62601;51.044;13.788;2023-06-24T10:37:23;7.60;;;6.90;;
74245;SDS011;62601;51.044;13.788;2023-06-24T10:39:53;7.17;;;6.00;;
74245;SDS011;62601;51.044;13.788;2023-06-24T10:44:47;8.10;;;6.50;;
74245;SDS011;62601;51.044;13.788;2023-06-24T10:47:07;8.43;;;7.37;;
74245;SDS011;62601;51.044;13.788;2023-06-24T10:49:27;7.90;;;6.17;;
74245;SDS011;62601;51.044;13.788;2023-06-24T10:51:47;7.20;;;6.00;;
74245;SDS011;62601;51.044;13.788;2023-06-24T10:54:07;7.37;;;5.80;;
74245;SDS011;62601;51.044;13.788;2023-06-24T10:56:30;14.17;;;6.20;;
74245;SDS011;62601;51.044;13.788;2023-06-24T10:58:56;6.80;;;5.40;;
74245;SDS011;62601;51.044;13.788;2023-06-24T11:01:16;6.30;;;5.70;;
74245;SDS011;62601;51.044;13.788;2023-06-24T11:03:36;6.50;;;5.43;;
74245;SDS011;62601;51.044;13.788;2023-06-24T11:05:59;6.73;;;6.03;;
74245;SDS011;62601;51.044;13.788;2023-06-24T11:08:23;7.13;;;5.90;;
74245;SDS011;62601;51.044;13.788;2023-06-24T11:10:44;6.40;;;5.80;;
74245;SDS011;62601;51.044;13.788;2023-06-24T11:13:05;6.57;;;6.00;;
74245;SDS011;62601;51.044;13.788;2023-06-24T11:15:25;5.40;;;4.90;;
74245;SDS011;62601;51.044;13.788;2023-06-24T11:17:45;9.23;;;6.53;;
74245;SDS011;62601;51.044;13.788;2023-06-24T11:20:09;5.67;;;5.03;;
74245;SDS011;62601;51.044;13.788;2023-06-24T11:22:29;6.03;;;5.53;;
74245;SDS011;62601;51.044;13.788;2023-06-24T11:24:50;22.60;;;20.30;;
74245;SDS011;62601;51.044;13.788;2023-06-24T11:27:10;14.00;;;12.70;;
74245;SDS011;62601;51.044;13.788;2023-06-24T11:29:30;6.93;;;5.73;;
74245;SDS011;62601;51.044;13.788;2023-06-24T11:31:51;6.43;;;5.53;;
74245;SDS011;62601;51.044;13.788;2023-06-24T11:34:11;5.80;;;5.30;;
74245;SDS011;62601;51.044;13.788;2023-06-24T11:36:31;6.50;;;6.00;;
74245;SDS011;62601;51.044;13.788;2023-06-24T11:38:51;6.33;;;5.83;;
74245;SDS011;62601;51.044;13.788;2023-06-24T11:41:12;8.87;;;6.33;;
74245;SDS011;62601;51.044;13.788;2023-06-24T11:43:32;6.80;;;6.17;;
74245;SDS011;62601;51.044;13.788;2023-06-24T11:45:52;8.60;;;5.97;;
74245;SDS011;62601;51.044;13.788;2023-06-24T11:48:12;6.10;;;5.60;;
74245;SDS011;62601;51.044;13.788;2023-06-24T11:50:33;12.60;;;7.50;;
74245;SDS011;62601;51.044;13.788;2023-06-24T11:52:55;6.40;;;5.80;;
74245;SDS011;62601;51.044;13.788;2023-06-24T11:55:16;9.73;;;7.47;;
74245;SDS011;62601;51.044;13.788;2023-06-24T12:00:15;6.80;;;6.20;;
74245;SDS011;62601;51.044;13.788;2023-06-24T12:02:36;5.97;;;5.47;;
74245;SDS011;62601;51.044;13.788;2023-06-24T12:04:56;7.47;;;6.83;;
74245;SDS011;62601;51.044;13.788;2023-06-24T12:07:16;6.60;;;6.00;;
74245;SDS011;62601;51.044;13.788;2023-06-24T12:09:37;6.00;;;5.50;;
74245;SDS011;62601;51.044;13.788;2023-06-24T12:11:57;6.50;;;5.90;;
74245;SDS011;62601;51.044;13.788;2023-06-24T12:14:17;7.10;;;5.43;;
74245;SDS011;62601;51.044;13.788;2023-06-24T12:16:38;7.00;;;6.00;;
74245;SDS011;62601;51.044;13.788;2023-06-24T12:18:58;6.10;;;5.50;;
74245;SDS011;62601;51.044;13.788;2023-06-24T12:21:18;8.10;;;6.40;;
74245;SDS011;62601;51.044;13.788;2023-06-24T12:23:38;5.47;;;5.00;;
74245;SDS011;62601;51.044;13.788;2023-06-24T12:25:58;6.93;;;6.27;;
74245;SDS011;62601;51.044;13.788;2023-06-24T12:28:18;6.90;;;5.37;;
74245;SDS011;62601;51.044;13.788;2023-06-24T12:30:38;6.00;;;5.50;;
74245;SDS011;62601;51.044;13.788;2023-06-24T12:32:59;6.97;;;6.30;;
74245;SDS011;62601;51.044;13.788;2023-06-24T12:35:19;8.00;;;6.17;;
74245;SDS011;62601;51.044;13.788;2023-06-24T12:37:39;6.83;;;6.20;;
74245;SDS011;62601;51.044;13.788;2023-06-24T12:39:59;5.70;;;5.20;;
74245;SDS011;62601;51.044;13.788;2023-06-24T12:42:19;6.10;;;5.57;;
74245;SDS011;62601;51.044;13.788;2023-06-24T12:44:39;7.13;;;5.50;;
74245;SDS011;62601;51.044;13.788;2023-06-24T12:47:00;5.90;;;5.40;;
74245;SDS011;62601;51.044;13.788;2023-06-24T12:49:20;7.73;;;5.17;;
74245;SDS011;62601;51.044;13.788;2023-06-24T12:51:40;5.40;;;4.90;;
74245;SDS011;62601;51.044;13.788;2023-06-24T12:54:00;5.50;;;5.10;;
74245;SDS011;62601;51.044;13.788;2023-06-24T12:56:20;5.60;;;5.20;;
74245;SDS011;62601;51.044;13.788;2023-06-24T12:58:40;5.50;;;4.90;;
74245;SDS011;62601;51.044;13.788;2023-06-24T13:01:00;6.13;;;5.63;;
74245;SDS011;62601;51.044;13.788;2023-06-24T13:03:20;6.10;;;5.60;;
74245;SDS011;62601;51.044;13.788;2023-06-24T13:05:40;6.27;;;5.73;;
74245;SDS011;62601;51.044;13.788;2023-06-24T13:08:00;6.00;;;4.83;;
74245;SDS011;62601;51.044;13.788;2023-06-24T13:10:20;16.37;;;5.23;;
74245;SDS011;62601;51.044;13.788;2023-06-24T13:12:41;5.73;;;5.23;;
74245;SDS011;62601;51.044;13.788;2023-06-24T13:15:01;5.80;;;5.30;;
74245;SDS011;62601;51.044;13.788;2023-06-24T13:17:21;5.60;;;5.20;;
74245;SDS011;62601;51.044;13.788;2023-06-24T13:19:41;6.33;;;5.70;;
74245;SDS011;62601;51.044;13.788;2023-06-24T13:22:01;5.63;;;5.13;;
74245;SDS011;62601;51.044;13.788;2023-06-24T13:24:22;6.07;;;5.57;;
74245;SDS011;62601;51.044;13.788;2023-06-24T13:26:42;5.87;;;5.27;;
74245;SDS011;62601;51.044;13.788;2023-06-24T13:29:02;5.73;;;5.23;;
74245;SDS011;62601;51.044;13.788;2023-06-24T13:31:22;6.20;;;5.80;;
74245;SDS011;62601;51.044;13.788;2023-06-24T13:33:42;5.23;;;4.77;;
74245;SDS011;62601;51.044;13.788;2023-06-24T13:36:03;5.67;;;5.07;;
74245;SDS011;62601;51.044;13.788;2023-06-24T13:38:23;5.23;;;4.80;;
74245;SDS011;62601;51.044;13.788;2023-06-24T13:40:43;6.60;;;6.00;;
74245;SDS011;62601;51.044;13.788;2023-06-24T13:43:03;5.33;;;4.80;;
74245;SDS011;62601;51.044;13.788;2023-06-24T13:45:23;5.70;;;5.23;;
74245;SDS011;62601;51.044;13.788;2023-06-24T13:47:43;7.07;;;5.27;;
74245;SDS011;62601;51.044;13.788;2023-06-24T13:50:04;5.53;;;5.13;;
74245;SDS011;62601;51.044;13.788;2023-06-24T13:52:24;5.40;;;5.00;;
74245;SDS011;62601;51.044;13.788;2023-06-24T13:54:45;5.13;;;4.73;;
74245;SDS011;62601;51.044;13.788;2023-06-24T13:57:05;5.10;;;4.80;;